createdAt,value
2022-08-17T00:03:40.614Z,17.80
2022-08-17T00:07:22.848Z,17.80
2022-08-17T00:11:07.987Z,17.80
2022-08-17T00:14:50.049Z,17.80
2022-08-17T00:19:06.324Z,17.80
2022-08-17T00:22:36.694Z,17.80
2022-08-17T00:26:44.576Z,17.90
2022-08-17T00:30:22.301Z,17.90
2022-08-17T00:34:06.358Z,17.90
2022-08-17T00:37:48.318Z,17.90
2022-08-17T00:41:30.981Z,17.90
2022-08-17T00:45:16.561Z,17.90
2022-08-17T00:48:59.239Z,17.90
2022-08-17T00:52:52.337Z,17.80
2022-08-17T00:56:38.673Z,17.80
2022-08-17T01:00:36.150Z,17.70
2022-08-17T01:04:21.213Z,17.70
2022-08-17T01:08:03.604Z,17.70
2022-08-17T01:11:48.331Z,17.70
2022-08-17T01:15:34.221Z,17.70
2022-08-17T01:19:25.421Z,17.70
2022-08-17T01:23:07.369Z,17.70
2022-08-17T01:26:49.357Z,17.70
2022-08-17T01:30:58.930Z,17.70
2022-08-17T01:34:42.604Z,17.60
2022-08-17T01:38:45.681Z,17.70
2022-08-17T01:42:31.689Z,17.70
2022-08-17T01:46:35.641Z,17.70
2022-08-17T01:50:27.603Z,17.70
2022-08-17T01:54:13.516Z,17.70
2022-08-17T01:57:55.466Z,17.70
2022-08-17T02:01:38.183Z,17.70
2022-08-17T02:05:20.425Z,17.70
2022-08-17T02:09:03.832Z,17.70
2022-08-17T02:12:45.902Z,17.70
2022-08-17T02:16:27.920Z,17.70
2022-08-17T02:20:42.126Z,17.80
2022-08-17T02:24:59.992Z,17.80
2022-08-17T02:28:28.592Z,17.70
2022-08-17T02:32:25.454Z,17.70
2022-08-17T02:36:10.581Z,17.80
2022-08-17T02:39:52.842Z,17.80
2022-08-17T02:43:35.225Z,17.80
2022-08-17T02:47:17.135Z,17.80
2022-08-17T02:51:00.534Z,17.80
2022-08-17T02:54:42.610Z,17.80
2022-08-17T02:58:35.510Z,17.80
2022-08-17T03:02:17.994Z,17.80
2022-08-17T03:06:00.476Z,17.80
2022-08-17T03:09:42.585Z,17.80
2022-08-17T03:13:24.563Z,17.80
2022-08-17T03:17:06.842Z,17.80
2022-08-17T03:20:49.765Z,17.80
2022-08-17T03:24:31.932Z,17.80
2022-08-17T03:28:13.905Z,17.90
2022-08-17T03:31:55.845Z,17.80
2022-08-17T03:35:40.444Z,17.90
2022-08-17T03:39:22.407Z,17.90
2022-08-17T03:43:06.968Z,17.80
2022-08-17T03:47:07.314Z,17.80
2022-08-17T03:51:12.726Z,17.90
2022-08-17T03:55:14.824Z,17.90
2022-08-17T03:58:56.750Z,17.80
2022-08-17T04:02:38.817Z,17.90
2022-08-17T04:06:20.856Z,17.90
2022-08-17T04:10:02.820Z,17.90
2022-08-17T04:13:44.817Z,17.90
2022-08-17T04:17:29.025Z,17.90
2022-08-17T04:21:11.137Z,17.90
2022-08-17T04:24:52.998Z,17.90
2022-08-17T04:28:35.558Z,17.90
2022-08-17T04:32:19.626Z,17.90
2022-08-17T04:36:19.386Z,17.90
2022-08-17T04:40:19.751Z,18.00
2022-08-17T04:44:03.968Z,18.00
2022-08-17T04:47:45.870Z,18.00
2022-08-17T04:51:54.746Z,18.00
2022-08-17T04:55:39.333Z,17.90
2022-08-17T04:59:22.331Z,17.90
2022-08-17T05:03:04.797Z,17.80
2022-08-17T05:06:47.163Z,17.80
2022-08-17T05:10:33.135Z,17.80
2022-08-17T05:14:15.286Z,17.70
2022-08-17T05:17:57.499Z,17.70
2022-08-17T05:21:39.521Z,17.70
2022-08-17T05:25:29.080Z,17.70
2022-08-17T05:29:14.745Z,17.70
2022-08-17T05:33:05.203Z,17.70
2022-08-17T05:36:47.938Z,17.60
2022-08-17T05:40:32.808Z,17.50
2022-08-17T05:44:16.031Z,17.50
2022-08-17T05:47:57.961Z,17.50
2022-08-17T05:52:41.371Z,17.50
2022-08-17T05:56:37.474Z,17.50
2022-08-17T06:00:35.692Z,17.60
2022-08-17T06:04:20.368Z,17.70
2022-08-17T06:08:20.642Z,17.70
2022-08-17T06:12:42.825Z,17.80
2022-08-17T06:16:39.085Z,17.90
2022-08-17T06:20:21.497Z,17.80
2022-08-17T06:24:28.137Z,17.90
2022-08-17T06:28:14.790Z,17.90
2022-08-17T06:31:59.486Z,18.00
2022-08-17T06:36:25.220Z,18.10
2022-08-17T06:40:36.598Z,18.10
2022-08-17T06:44:51.716Z,18.10
2022-08-17T06:48:58.710Z,18.20
2022-08-17T06:53:04.633Z,18.20
2022-08-17T06:57:02.589Z,18.20
2022-08-17T07:00:47.340Z,18.30
2022-08-17T07:04:33.969Z,18.30
2022-08-17T07:08:29.668Z,18.40
2022-08-17T07:12:22.281Z,18.40
2022-08-17T07:16:26.315Z,18.40
2022-08-17T07:20:15.123Z,18.40
2022-08-17T07:24:30.193Z,18.40
2022-08-17T07:28:13.028Z,18.50
2022-08-17T07:31:55.787Z,18.50
2022-08-17T07:35:43.944Z,18.50
2022-08-17T07:39:27.985Z,18.60
2022-08-17T07:43:22.350Z,18.60
2022-08-17T07:47:32.251Z,18.80
2022-08-17T07:51:19.197Z,18.80
2022-08-17T07:55:21.028Z,18.80
2022-08-17T07:59:23.757Z,18.90
2022-08-17T08:03:21.856Z,19.00
2022-08-17T08:07:24.479Z,19.10
2022-08-17T08:11:27.972Z,19.20
2022-08-17T08:15:18.840Z,19.40
2022-08-17T08:19:02.248Z,19.50
2022-08-17T08:23:21.659Z,19.60
2022-08-17T08:27:19.083Z,19.70
2022-08-17T08:31:42.619Z,19.70
2022-08-17T08:35:32.481Z,19.70
2022-08-17T08:39:35.584Z,19.70
2022-08-17T08:43:52.218Z,19.70
2022-08-17T08:48:05.167Z,19.90
2022-08-17T08:51:59.494Z,20.10
2022-08-17T08:56:16.472Z,20.10
2022-08-17T09:00:21.335Z,20.20
2022-08-17T09:05:10.689Z,20.20
2022-08-17T09:09:02.754Z,20.20
2022-08-17T09:13:14.509Z,20.30
2022-08-17T09:17:27.914Z,20.40
2022-08-17T09:21:18.998Z,20.30
2022-08-17T09:25:08.965Z,20.30
2022-08-17T09:28:55.933Z,20.30
2022-08-17T09:32:44.811Z,20.50
2022-08-17T09:36:34.491Z,21.00
2022-08-17T09:40:24.500Z,21.20
2022-08-17T09:44:23.712Z,21.40
2022-08-17T09:48:27.639Z,21.60
2022-08-17T09:52:20.913Z,21.60
2022-08-17T09:56:27.626Z,21.70
2022-08-17T10:00:16.695Z,21.80
2022-08-17T10:04:29.343Z,22.20
2022-08-17T10:08:27.735Z,22.40
2022-08-17T10:12:21.453Z,22.60
2022-08-17T10:16:09.352Z,22.70
2022-08-17T10:20:22.618Z,22.90
2022-08-17T10:24:31.699Z,23.60
2022-08-17T10:28:25.857Z,24.50
2022-08-17T10:32:16.593Z,24.40
2022-08-17T10:36:11.206Z,24.30
2022-08-17T10:40:26.452Z,24.00
2022-08-17T10:44:39.609Z,24.00
2022-08-17T10:48:37.871Z,23.90
2022-08-17T10:52:19.734Z,24.00
2022-08-17T10:56:13.832Z,23.90
2022-08-17T10:59:57.442Z,23.70
2022-08-17T11:04:21.360Z,23.60
2022-08-17T11:08:26.288Z,23.40
2022-08-17T11:12:08.636Z,23.30
2022-08-17T11:16:32.673Z,23.20
2022-08-17T11:20:30.136Z,23.80
2022-08-17T11:24:28.354Z,24.30
2022-08-17T11:28:20.994Z,24.20
2022-08-17T11:32:14.190Z,24.10
2022-08-17T11:36:04.169Z,24.00
2022-08-17T11:39:54.484Z,23.70
2022-08-17T11:43:55.615Z,23.40
2022-08-17T11:48:28.798Z,23.20
2022-08-17T11:52:39.033Z,23.10
2022-08-17T11:56:43.942Z,23.20
2022-08-17T12:00:49.935Z,23.50
2022-08-17T12:04:34.161Z,24.10
2022-08-17T12:08:20.361Z,25.00
2022-08-17T12:12:22.620Z,25.40
2022-08-17T12:16:05.597Z,25.90
2022-08-17T12:19:47.575Z,26.00
2022-08-17T12:24:00.557Z,26.00
2022-08-17T12:28:05.623Z,26.30
2022-08-17T12:31:52.319Z,26.30
2022-08-17T12:35:38.897Z,26.30
2022-08-17T12:39:22.922Z,26.20
2022-08-17T12:43:18.789Z,26.30
2022-08-17T12:47:23.295Z,26.50
2022-08-17T12:51:07.900Z,26.70
2022-08-17T12:55:00.533Z,26.50
2022-08-17T12:58:53.537Z,26.20
2022-08-17T13:02:46.515Z,25.90
2022-08-17T13:06:32.348Z,25.60
2022-08-17T13:10:19.145Z,25.60
2022-08-17T13:14:10.152Z,25.80
2022-08-17T13:18:36.507Z,26.10
2022-08-17T13:22:23.892Z,26.60
2022-08-17T13:26:09.251Z,27.40
2022-08-17T13:29:55.449Z,28.50
2022-08-17T13:33:44.783Z,28.90
2022-08-17T13:37:33.931Z,29.00
2022-08-17T13:41:37.795Z,28.50
2022-08-17T13:45:36.647Z,28.60
2022-08-17T13:49:21.366Z,29.10
2022-08-17T13:53:14.940Z,29.30
2022-08-17T13:57:12.836Z,29.10
2022-08-17T14:00:56.313Z,29.20
2022-08-17T14:04:40.869Z,28.90
2022-08-17T14:08:22.865Z,28.30
2022-08-17T14:12:09.698Z,27.50
2022-08-17T14:15:53.977Z,27.30
2022-08-17T14:19:38.820Z,27.60
2022-08-17T14:23:21.077Z,27.30
2022-08-17T14:27:05.737Z,27.20
2022-08-17T14:30:47.712Z,27.30
2022-08-17T14:34:29.684Z,27.80
2022-08-17T14:38:11.603Z,28.30
2022-08-17T14:41:53.604Z,28.60
2022-08-17T14:45:35.983Z,29.10
2022-08-17T14:49:20.694Z,29.40
2022-08-17T14:53:04.534Z,29.80
2022-08-17T14:56:47.208Z,29.90
2022-08-17T15:00:40.625Z,30.00
2022-08-17T15:04:22.590Z,30.10
2022-08-17T15:08:06.243Z,30.20
2022-08-17T15:11:48.222Z,30.20
2022-08-17T15:15:30.542Z,30.20
2022-08-17T15:19:12.477Z,30.10
2022-08-17T15:22:59.040Z,30.10
2022-08-17T15:26:41.182Z,30.20
2022-08-17T15:30:24.330Z,30.10
2022-08-17T15:34:08.094Z,30.00
2022-08-17T15:37:50.782Z,29.50
2022-08-17T15:41:32.976Z,29.30
2022-08-17T15:45:17.023Z,29.00
2022-08-17T15:49:00.464Z,28.90
2022-08-17T15:52:44.955Z,28.60
2022-08-17T15:56:28.111Z,28.00
2022-08-17T16:00:11.270Z,27.40
2022-08-17T16:04:05.247Z,26.90
2022-08-17T16:07:50.661Z,26.50
2022-08-17T16:11:32.650Z,25.90
2022-08-17T16:15:16.292Z,25.50
2022-08-17T16:18:59.155Z,25.10
2022-08-17T16:22:44.802Z,24.80
2022-08-17T16:26:28.440Z,24.50
2022-08-17T16:30:16.587Z,24.20
2022-08-17T16:34:17.135Z,24.00
2022-08-17T16:38:00.165Z,23.80
2022-08-17T16:41:45.398Z,23.60
2022-08-17T16:45:29.407Z,23.40
2022-08-17T16:49:11.891Z,23.20
2022-08-17T16:53:10.913Z,23.10
2022-08-17T16:56:53.726Z,22.90
2022-08-17T17:00:37.121Z,22.80
2022-08-17T17:04:19.475Z,22.70
2022-08-17T17:08:10.066Z,22.60
2022-08-17T17:11:57.110Z,22.50
2022-08-17T17:15:55.109Z,22.40
2022-08-17T17:19:45.536Z,22.30
2022-08-17T17:23:45.166Z,22.20
2022-08-17T17:27:39.119Z,22.10
2022-08-17T17:31:25.394Z,22.00
2022-08-17T17:35:25.707Z,22.00
2022-08-17T17:39:13.070Z,21.90
2022-08-17T17:43:14.357Z,21.90
2022-08-17T17:47:02.453Z,21.90
2022-08-17T17:51:07.096Z,21.80
2022-08-17T17:55:16.387Z,21.70
2022-08-17T17:59:29.464Z,21.70
2022-08-17T18:04:00.143Z,21.60
2022-08-17T18:07:54.327Z,21.50
2022-08-17T18:11:59.862Z,21.40
2022-08-17T18:15:54.021Z,21.30
2022-08-17T18:19:38.944Z,21.20
2022-08-17T18:23:27.063Z,21.20
2022-08-17T18:27:31.428Z,21.10
2022-08-17T18:31:18.278Z,20.90
2022-08-17T18:35:09.448Z,20.80
2022-08-17T18:39:18.054Z,20.70
2022-08-17T18:43:23.027Z,20.50
2022-08-17T18:47:23.044Z,20.40
2022-08-17T18:51:40.668Z,20.30
2022-08-17T18:55:29.311Z,20.20
2022-08-17T18:59:18.782Z,20.00
2022-08-17T19:03:03.416Z,19.90
2022-08-17T19:06:46.930Z,19.90
2022-08-17T19:10:46.304Z,19.80
2022-08-17T19:14:30.264Z,19.70
2022-08-17T19:18:18.522Z,19.70
2022-08-17T19:22:29.247Z,19.70
2022-08-17T19:26:54.200Z,19.70
2022-08-17T19:30:37.823Z,19.70
2022-08-17T19:34:33.095Z,19.80
2022-08-17T19:38:29.367Z,19.80
2022-08-17T19:42:15.049Z,19.70
2022-08-17T19:46:13.460Z,19.70
2022-08-17T19:50:18.848Z,19.70
2022-08-17T19:54:20.546Z,19.70
2022-08-17T19:58:08.746Z,19.70
2022-08-17T20:01:53.311Z,19.60
2022-08-17T20:06:10.888Z,19.60
2022-08-17T20:09:58.579Z,19.60
2022-08-17T20:13:51.010Z,19.60
2022-08-17T20:17:39.341Z,19.50
2022-08-17T20:21:40.368Z,19.50
2022-08-17T20:25:54.897Z,19.50
2022-08-17T20:30:10.785Z,19.50
2022-08-17T20:33:52.767Z,19.40
2022-08-17T20:37:36.275Z,19.40
2022-08-17T20:41:24.153Z,19.40
2022-08-17T20:45:21.448Z,19.30
2022-08-17T20:49:47.862Z,19.30
2022-08-17T20:53:49.727Z,19.20
2022-08-17T20:57:31.792Z,19.10
2022-08-17T21:01:20.224Z,19.10
2022-08-17T21:05:24.580Z,19.10
2022-08-17T21:09:29.965Z,19.10
2022-08-17T21:13:13.460Z,19.10
2022-08-17T21:17:24.982Z,19.10
2022-08-17T21:21:24.219Z,19.00
2022-08-17T21:25:27.864Z,19.00
2022-08-17T21:29:30.268Z,19.00
2022-08-17T21:33:20.255Z,19.00
2022-08-17T21:37:20.534Z,19.00
2022-08-17T21:41:02.880Z,19.00
2022-08-17T21:44:49.398Z,19.00
2022-08-17T21:48:41.501Z,19.00
2022-08-17T21:52:26.911Z,19.00
2022-08-17T21:56:11.956Z,19.00
2022-08-17T21:59:57.064Z,18.90
2022-08-17T22:03:40.403Z,19.00
2022-08-17T22:07:46.309Z,18.90
2022-08-17T22:11:28.497Z,18.90
2022-08-17T22:15:20.550Z,18.90
2022-08-17T22:19:04.768Z,18.90
2022-08-17T22:23:05.435Z,18.90
2022-08-17T22:27:11.627Z,18.90
2022-08-17T22:31:04.358Z,18.90
2022-08-17T22:34:46.336Z,18.90
2022-08-17T22:38:29.696Z,18.90
2022-08-17T22:42:15.418Z,18.80
2022-08-17T22:46:00.067Z,18.80
2022-08-17T22:50:01.610Z,18.80
2022-08-17T22:54:07.910Z,18.80
2022-08-17T22:58:08.483Z,18.80
2022-08-17T23:02:14.412Z,18.80
2022-08-17T23:06:11.151Z,18.80
2022-08-17T23:09:53.514Z,18.70
2022-08-17T23:13:37.534Z,18.70
2022-08-17T23:17:19.523Z,18.70
2022-08-17T23:21:01.490Z,18.70
2022-08-17T23:24:49.020Z,18.70
2022-08-17T23:28:31.009Z,18.70
2022-08-17T23:32:15.686Z,18.70
2022-08-17T23:36:00.200Z,18.70
2022-08-17T23:39:45.083Z,18.60
2022-08-17T23:43:28.412Z,18.60
2022-08-17T23:47:11.375Z,18.60
2022-08-17T23:50:57.217Z,18.60
2022-08-17T23:54:48.836Z,18.50
2022-08-17T23:58:32.342Z,18.50
